createdAt,value
2018-09-27T00:01:25.890Z,100.00
2018-09-27T00:03:55.109Z,100.00
2018-09-27T00:06:24.334Z,100.00
2018-09-27T00:08:53.552Z,100.00
2018-09-27T00:11:22.790Z,100.00
2018-09-27T00:13:52.023Z,100.00
2018-09-27T00:16:21.258Z,100.00
2018-09-27T00:18:50.460Z,100.00
2018-09-27T00:21:19.688Z,100.00
2018-09-27T00:23:49.187Z,100.00
2018-09-27T00:26:18.403Z,100.00
2018-09-27T00:28:47.715Z,100.00
2018-09-27T00:31:16.953Z,100.00
2018-09-27T00:33:46.181Z,100.00
2018-09-27T00:36:15.396Z,100.00
2018-09-27T00:38:44.654Z,100.00
2018-09-27T00:41:13.881Z,100.00
2018-09-27T00:43:43.111Z,100.00
2018-09-27T00:46:12.323Z,100.00
2018-09-27T00:48:41.524Z,100.00
2018-09-27T00:51:10.743Z,100.00
2018-09-27T00:53:39.970Z,100.00
2018-09-27T00:56:09.194Z,100.00
2018-09-27T00:58:38.414Z,100.00
2018-09-27T01:01:07.679Z,100.00
2018-09-27T01:03:36.903Z,100.00
2018-09-27T01:06:06.130Z,100.00
2018-09-27T01:08:35.354Z,100.00
2018-09-27T01:11:04.571Z,100.00
2018-09-27T01:13:33.801Z,100.00
2018-09-27T01:16:03.035Z,100.00
2018-09-27T01:18:32.265Z,100.00
2018-09-27T01:21:01.494Z,100.00
2018-09-27T01:23:30.738Z,100.00
2018-09-27T01:26:00.303Z,100.00
2018-09-27T01:28:29.547Z,100.00
2018-09-27T01:30:59.708Z,100.00
2018-09-27T01:33:28.934Z,100.00
2018-09-27T01:35:58.151Z,100.00
2018-09-27T01:38:27.379Z,100.00
2018-09-27T01:40:56.617Z,100.00
2018-09-27T01:43:25.858Z,100.00
2018-09-27T01:45:55.066Z,100.00
2018-09-27T01:48:24.282Z,100.00
2018-09-27T01:50:53.486Z,100.00
2018-09-27T01:53:22.718Z,100.00
2018-09-27T01:55:51.927Z,100.00
2018-09-27T01:58:21.142Z,100.00
2018-09-27T02:00:50.339Z,100.00
2018-09-27T02:03:19.568Z,100.00
2018-09-27T02:05:48.843Z,100.00
2018-09-27T02:08:18.095Z,100.00
2018-09-27T02:10:47.310Z,100.00
2018-09-27T02:13:16.535Z,100.00
2018-09-27T02:15:45.756Z,100.00
2018-09-27T02:18:15.159Z,100.00
2018-09-27T02:20:44.370Z,100.00
2018-09-27T02:23:13.622Z,100.00
2018-09-27T02:25:42.994Z,100.00
2018-09-27T02:28:12.210Z,100.00
2018-09-27T02:30:41.420Z,100.00
2018-09-27T02:33:10.627Z,100.00
2018-09-27T02:35:39.849Z,100.00
2018-09-27T02:38:09.084Z,100.00
2018-09-27T02:40:38.306Z,100.00
2018-09-27T02:43:07.544Z,100.00
2018-09-27T02:45:36.744Z,100.00
2018-09-27T02:48:05.969Z,100.00
2018-09-27T02:50:35.196Z,100.00
2018-09-27T02:53:04.422Z,100.00
2018-09-27T02:55:33.639Z,100.00
2018-09-27T02:58:02.859Z,100.00
2018-09-27T03:00:32.079Z,100.00
2018-09-27T03:03:01.314Z,100.00
2018-09-27T03:05:30.531Z,100.00
2018-09-27T03:07:59.763Z,100.00
2018-09-27T03:10:28.990Z,100.00
2018-09-27T03:12:58.474Z,100.00
2018-09-27T03:15:27.695Z,100.00
2018-09-27T03:17:58.166Z,100.00
2018-09-27T03:20:27.382Z,100.00
2018-09-27T03:22:56.594Z,100.00
2018-09-27T03:25:25.839Z,100.00
2018-09-27T03:27:55.105Z,100.00
2018-09-27T03:30:24.373Z,100.00
2018-09-27T03:32:57.623Z,100.00
2018-09-27T03:35:26.918Z,100.00
2018-09-27T03:37:56.146Z,100.00
2018-09-27T03:40:25.670Z,100.00
2018-09-27T03:42:54.941Z,100.00
2018-09-27T03:45:24.134Z,100.00
2018-09-27T03:47:53.355Z,100.00
2018-09-27T03:50:22.605Z,100.00
2018-09-27T03:52:51.794Z,100.00
2018-09-27T03:55:21.278Z,100.00
2018-09-27T03:57:50.511Z,100.00
2018-09-27T04:00:19.722Z,100.00
2018-09-27T04:02:49.066Z,100.00
2018-09-27T04:05:18.276Z,100.00
2018-09-27T04:07:47.528Z,100.00
2018-09-27T04:10:16.777Z,100.00
2018-09-27T04:12:46.067Z,100.00
2018-09-27T04:15:15.223Z,100.00
2018-09-27T04:17:44.454Z,100.00
2018-09-27T04:20:14.792Z,100.00
2018-09-27T04:22:44.006Z,100.00
2018-09-27T04:25:13.232Z,100.00
2018-09-27T04:27:42.510Z,100.00
2018-09-27T04:30:11.677Z,100.00
2018-09-27T04:32:40.926Z,100.00
2018-09-27T04:35:10.168Z,100.00
2018-09-27T04:37:39.479Z,100.00
2018-09-27T04:40:08.699Z,100.00
2018-09-27T04:42:37.910Z,100.00
2018-09-27T04:45:07.136Z,100.00
2018-09-27T04:47:36.358Z,100.00
2018-09-27T04:50:05.605Z,100.00
2018-09-27T04:52:34.859Z,100.00
2018-09-27T04:58:03.528Z,100.00
2018-09-27T05:00:32.794Z,100.00
2018-09-27T05:03:02.245Z,100.00
2018-09-27T05:05:31.510Z,100.00
2018-09-27T05:08:00.811Z,100.00
2018-09-27T05:10:30.090Z,100.00
2018-09-27T05:12:59.370Z,100.00
2018-09-27T05:15:28.650Z,100.00
2018-09-27T05:17:57.940Z,100.00
2018-09-27T05:20:27.226Z,100.00
2018-09-27T05:22:56.466Z,100.00
2018-09-27T05:25:25.730Z,100.00
2018-09-27T05:27:55.038Z,100.00
2018-09-27T05:30:24.290Z,100.00
2018-09-27T05:32:53.549Z,100.00
2018-09-27T05:35:22.829Z,100.00
2018-09-27T05:37:52.197Z,100.00
2018-09-27T05:40:21.462Z,100.00
2018-09-27T05:43:21.439Z,100.00
2018-09-27T05:45:50.728Z,100.00
2018-09-27T05:48:20.112Z,100.00
2018-09-27T05:50:49.377Z,100.00
2018-09-27T05:53:18.646Z,100.00
2018-09-27T05:55:48.051Z,100.00
2018-09-27T05:58:17.285Z,100.00
2018-09-27T06:00:46.526Z,100.00
2018-09-27T06:03:15.794Z,88.00
2018-09-27T06:05:45.074Z,63.18
2018-09-27T06:08:14.340Z,54.52
2018-09-27T06:10:43.602Z,46.49
2018-09-27T06:13:12.918Z,43.22
2018-09-27T06:15:42.220Z,41.26
2018-09-27T06:18:11.474Z,39.47
2018-09-27T06:20:40.803Z,37.53
2018-09-27T06:23:10.052Z,36.05
2018-09-27T06:25:39.330Z,32.90
2018-09-27T06:28:08.597Z,34.98
2018-09-27T06:30:37.887Z,38.79
2018-09-27T06:33:07.243Z,36.57
2018-09-27T06:35:36.556Z,35.29
2018-09-27T06:38:05.806Z,35.25
2018-09-27T06:40:35.094Z,35.41
2018-09-27T06:43:04.367Z,32.92
2018-09-27T06:45:33.639Z,31.91
2018-09-27T06:48:02.915Z,32.07
2018-09-27T06:50:32.230Z,28.34
2018-09-27T06:53:01.498Z,30.82
2018-09-27T06:55:31.089Z,30.18
2018-09-27T06:58:00.133Z,30.11
2018-09-27T07:00:29.424Z,30.66
2018-09-27T07:02:58.670Z,28.09
2018-09-27T07:05:27.954Z,26.92
2018-09-27T07:07:57.201Z,26.38
2018-09-27T07:10:26.474Z,26.17
2018-09-27T07:12:55.791Z,29.38
2018-09-27T07:15:25.030Z,28.05
2018-09-27T07:17:54.287Z,28.24
2018-09-27T07:20:23.605Z,28.50
2018-09-27T07:22:52.829Z,27.98
2018-09-27T07:25:22.106Z,28.05
2018-09-27T07:27:51.378Z,27.99
2018-09-27T07:30:20.634Z,28.63
2018-09-27T07:32:49.905Z,29.42
2018-09-27T07:35:20.310Z,28.00
2018-09-27T07:37:49.570Z,29.28
2018-09-27T07:40:18.859Z,28.78
2018-09-27T07:42:48.159Z,25.81
2018-09-27T07:45:17.382Z,29.11
2018-09-27T07:47:46.660Z,28.77
2018-09-27T07:50:15.929Z,28.75
2018-09-27T07:52:45.190Z,30.11
2018-09-27T07:55:14.445Z,28.73
2018-09-27T07:57:43.718Z,27.55
2018-09-27T08:00:12.970Z,31.35
2018-09-27T08:02:42.341Z,30.77
2018-09-27T08:05:11.673Z,31.20
2018-09-27T08:07:40.953Z,31.89
2018-09-27T08:10:10.234Z,28.97
2018-09-27T08:12:39.505Z,28.09
2018-09-27T08:15:08.883Z,27.01
2018-09-27T08:17:38.145Z,28.34
2018-09-27T08:20:07.422Z,28.28
2018-09-27T08:22:36.701Z,26.57
2018-09-27T08:25:05.948Z,27.08
2018-09-27T08:27:35.202Z,24.20
2018-09-27T08:30:04.495Z,25.46
2018-09-27T08:32:33.815Z,23.82
2018-09-27T08:35:03.095Z,24.56
2018-09-27T08:37:32.354Z,25.58
2018-09-27T08:40:01.619Z,25.36
2018-09-27T08:42:31.078Z,27.41
2018-09-27T08:45:00.443Z,27.20
2018-09-27T08:47:29.611Z,27.42
2018-09-27T08:49:58.870Z,24.38
2018-09-27T08:52:28.201Z,25.34
2018-09-27T08:54:57.438Z,26.64
2018-09-27T08:57:26.702Z,25.19
2018-09-27T08:59:55.957Z,23.25
2018-09-27T09:02:25.211Z,24.32
2018-09-27T09:04:54.490Z,25.31
2018-09-27T09:07:23.794Z,23.15
2018-09-27T09:09:53.039Z,22.96
2018-09-27T09:12:23.545Z,23.00
2018-09-27T09:14:52.800Z,20.24
2018-09-27T09:17:22.066Z,20.80
2018-09-27T09:19:51.327Z,22.15
2018-09-27T09:22:20.603Z,17.33
2018-09-27T09:24:49.879Z,25.08
2018-09-27T09:27:19.146Z,22.69
2018-09-27T09:29:48.462Z,21.34
2018-09-27T09:32:17.826Z,20.92
2018-09-27T09:34:47.074Z,21.77
2018-09-27T09:37:16.322Z,23.26
2018-09-27T09:39:45.620Z,22.01
2018-09-27T09:42:14.885Z,25.43
2018-09-27T09:44:44.146Z,23.87
2018-09-27T09:47:13.410Z,22.98
2018-09-27T09:49:42.701Z,23.79
2018-09-27T09:52:11.950Z,22.78
2018-09-27T09:54:41.552Z,21.95
2018-09-27T09:57:10.808Z,24.51
2018-09-27T09:59:40.077Z,26.88
2018-09-27T10:02:09.347Z,23.79
2018-09-27T10:04:38.598Z,22.31
2018-09-27T10:07:07.882Z,25.26
2018-09-27T10:09:37.163Z,25.91
2018-09-27T10:12:06.410Z,23.90
2018-09-27T10:14:35.672Z,26.97
2018-09-27T10:17:04.938Z,19.90
2018-09-27T10:19:34.226Z,23.14
2018-09-27T10:22:03.523Z,29.12
2018-09-27T10:24:32.771Z,31.12
2018-09-27T10:27:02.031Z,29.35
2018-09-27T10:29:31.303Z,27.20
2018-09-27T10:32:00.561Z,30.99
2018-09-27T10:34:29.844Z,29.36
2018-09-27T10:36:59.118Z,28.30
2018-09-27T10:39:28.319Z,22.54
2018-09-27T10:41:57.542Z,29.35
2018-09-27T10:44:26.755Z,27.12
2018-09-27T10:46:56.008Z,23.93
2018-09-27T10:49:25.218Z,26.10
2018-09-27T10:51:54.435Z,20.13
2018-09-27T10:54:23.646Z,26.77
2018-09-27T10:56:52.864Z,24.89
2018-09-27T10:59:22.075Z,17.72
2018-09-27T11:01:51.295Z,24.64
2018-09-27T11:04:20.502Z,18.56
2018-09-27T11:06:49.742Z,16.22
2018-09-27T11:09:18.951Z,21.72
2018-09-27T11:11:48.214Z,21.77
2018-09-27T11:14:17.470Z,29.91
2018-09-27T11:16:46.694Z,26.06
2018-09-27T11:19:15.919Z,17.18
2018-09-27T11:21:45.147Z,21.59
2018-09-27T11:24:14.396Z,22.36
2018-09-27T11:26:43.758Z,21.49
2018-09-27T11:30:16.938Z,21.73
2018-09-27T11:32:46.498Z,13.85
2018-09-27T11:35:15.734Z,18.66
2018-09-27T11:37:45.054Z,16.06
2018-09-27T11:40:14.302Z,16.04
2018-09-27T11:42:43.604Z,17.96
2018-09-27T11:45:12.879Z,15.22
2018-09-27T11:47:42.085Z,14.77
2018-09-27T11:50:11.414Z,11.95
2018-09-27T11:52:41.219Z,17.20
2018-09-27T11:55:10.822Z,24.17
2018-09-27T11:57:40.034Z,25.69
2018-09-27T12:00:09.872Z,26.02
2018-09-27T12:02:40.323Z,26.06
2018-09-27T12:05:09.557Z,26.82
2018-09-27T12:07:38.879Z,29.48
2018-09-27T12:10:08.062Z,30.01
2018-09-27T12:12:37.279Z,28.83
2018-09-27T12:15:06.817Z,28.23
2018-09-27T12:17:36.114Z,28.75
2018-09-27T12:20:05.330Z,29.37
2018-09-27T12:22:34.511Z,28.11
2018-09-27T12:25:03.753Z,24.79
2018-09-27T12:27:32.986Z,26.29
2018-09-27T12:30:02.213Z,25.57
2018-09-27T12:32:31.468Z,21.21
2018-09-27T12:35:00.695Z,25.71
2018-09-27T12:37:29.922Z,26.77
2018-09-27T12:39:59.151Z,25.02
2018-09-27T12:42:28.404Z,25.61
2018-09-27T12:44:57.673Z,28.82
2018-09-27T12:47:26.928Z,29.65
2018-09-27T12:49:56.142Z,26.54
2018-09-27T12:52:25.518Z,28.30
2018-09-27T12:54:54.698Z,30.70
2018-09-27T12:57:24.023Z,30.86
2018-09-27T12:59:53.266Z,29.59
2018-09-27T13:02:22.544Z,28.48
2018-09-27T13:04:51.716Z,27.69
2018-09-27T13:07:20.939Z,26.78
2018-09-27T13:09:50.249Z,27.10
2018-09-27T13:12:19.447Z,25.79
2018-09-27T13:14:49.848Z,27.00
2018-09-27T13:17:19.235Z,25.96
2018-09-27T13:19:48.325Z,25.80
2018-09-27T13:22:17.527Z,29.41
2018-09-27T13:24:46.755Z,27.97
2018-09-27T13:27:16.099Z,35.45
2018-09-27T13:29:45.328Z,34.26
2018-09-27T13:32:14.569Z,31.42
2018-09-27T13:34:43.766Z,35.00
2018-09-27T13:37:12.995Z,35.68
2018-09-27T13:39:42.248Z,36.85
2018-09-27T13:42:11.480Z,37.40
2018-09-27T13:44:40.695Z,33.33
2018-09-27T13:47:09.934Z,32.77
2018-09-27T13:49:39.211Z,33.94
2018-09-27T13:52:08.519Z,35.14
2018-09-27T13:54:37.750Z,35.38
2018-09-27T13:57:07.075Z,34.19
2018-09-27T13:59:36.223Z,33.12
2018-09-27T14:02:05.490Z,34.77
2018-09-27T14:04:34.982Z,38.17
2018-09-27T14:07:04.220Z,34.76
2018-09-27T14:09:33.438Z,35.76
2018-09-27T14:12:02.680Z,35.02
2018-09-27T14:14:32.845Z,33.50
2018-09-27T14:17:02.099Z,31.84
2018-09-27T14:19:31.262Z,35.00
2018-09-27T14:22:00.490Z,34.50
2018-09-27T14:24:29.702Z,38.93
2018-09-27T14:26:58.973Z,37.71
2018-09-27T14:29:28.147Z,36.41
2018-09-27T14:31:57.386Z,37.64
2018-09-27T14:34:26.612Z,36.46
2018-09-27T14:36:55.968Z,34.19
2018-09-27T14:39:25.183Z,35.98
2018-09-27T14:41:54.407Z,37.13
2018-09-27T14:44:23.647Z,38.35
2018-09-27T14:46:52.858Z,38.10
2018-09-27T14:49:22.072Z,38.18
2018-09-27T14:51:51.431Z,39.77
2018-09-27T14:54:20.695Z,39.63
2018-09-27T14:56:50.154Z,37.46
2018-09-27T14:59:19.736Z,38.97
2018-09-27T15:01:48.962Z,38.43
2018-09-27T15:04:18.195Z,38.48
2018-09-27T15:06:47.510Z,38.37
2018-09-27T15:09:23.091Z,37.96
2018-09-27T15:11:52.203Z,36.52
2018-09-27T15:14:22.281Z,36.66
2018-09-27T15:16:51.510Z,36.85
2018-09-27T15:19:20.723Z,37.26
2018-09-27T15:21:49.943Z,37.30
2018-09-27T15:24:19.246Z,38.48
2018-09-27T15:26:48.579Z,39.45
2018-09-27T15:29:17.786Z,38.21
2018-09-27T15:31:47.003Z,36.93
2018-09-27T15:34:16.255Z,37.32
2018-09-27T15:36:45.462Z,40.18
2018-09-27T15:39:14.675Z,40.11
2018-09-27T15:41:44.159Z,40.97
2018-09-27T15:44:13.390Z,40.72
2018-09-27T15:46:42.685Z,41.78
2018-09-27T15:49:11.977Z,42.14
2018-09-27T15:51:41.187Z,42.62
2018-09-27T15:54:10.512Z,43.46
2018-09-27T15:56:39.742Z,43.08
2018-09-27T15:59:08.999Z,43.28
2018-09-27T16:01:38.219Z,43.87
2018-09-27T16:04:07.490Z,44.57
2018-09-27T16:06:37.858Z,44.09
2018-09-27T16:09:09.358Z,43.01
2018-09-27T16:11:38.583Z,43.88
2018-09-27T16:14:07.924Z,44.19
2018-09-27T16:16:37.142Z,43.79
2018-09-27T16:19:06.436Z,44.92
2018-09-27T16:21:35.665Z,44.47
2018-09-27T16:24:04.893Z,43.41
2018-09-27T16:26:34.231Z,43.24
2018-09-27T16:29:03.483Z,44.10
2018-09-27T16:31:32.739Z,44.30
2018-09-27T16:34:01.955Z,45.56
2018-09-27T16:36:31.186Z,45.77
2018-09-27T16:39:00.462Z,49.33
2018-09-27T16:41:29.734Z,51.33
2018-09-27T16:43:58.947Z,53.49
2018-09-27T16:46:28.190Z,58.50
2018-09-27T16:48:57.436Z,61.10
2018-09-27T16:51:26.634Z,59.90
2018-09-27T16:53:55.854Z,62.07
2018-09-27T16:56:25.164Z,64.29
2018-09-27T16:58:54.653Z,66.51
2018-09-27T17:01:23.938Z,67.92
2018-09-27T17:03:53.138Z,70.36
2018-09-27T17:06:22.385Z,72.28
2018-09-27T17:08:51.610Z,73.93
2018-09-27T17:11:20.815Z,74.32
2018-09-27T17:13:50.213Z,75.44
2018-09-27T17:16:19.434Z,77.24
2018-09-27T17:18:49.944Z,78.07
2018-09-27T17:21:19.133Z,78.79
2018-09-27T17:23:48.363Z,80.03
2018-09-27T17:26:17.580Z,81.15
2018-09-27T17:28:46.799Z,81.07
2018-09-27T17:31:16.052Z,81.28
2018-09-27T17:33:45.291Z,81.21
2018-09-27T17:36:14.523Z,82.08
2018-09-27T17:38:43.739Z,83.56
2018-09-27T17:41:12.942Z,80.22
2018-09-27T17:43:42.249Z,82.67
2018-09-27T17:46:11.403Z,83.29
2018-09-27T17:48:40.638Z,83.62
2018-09-27T17:51:09.878Z,85.33
2018-09-27T17:53:39.103Z,86.24
2018-09-27T17:56:08.327Z,86.98
2018-09-27T17:58:37.562Z,87.96
2018-09-27T18:01:06.773Z,84.14
2018-09-27T18:03:35.999Z,86.96
2018-09-27T18:06:05.223Z,88.46
2018-09-27T18:08:34.453Z,88.48
2018-09-27T18:11:03.662Z,88.60
2018-09-27T18:13:32.929Z,88.70
2018-09-27T18:16:02.110Z,89.67
2018-09-27T18:18:31.338Z,90.29
2018-09-27T18:21:00.563Z,90.90
2018-09-27T18:23:29.790Z,91.67
2018-09-27T18:25:59.099Z,91.92
2018-09-27T18:28:28.474Z,91.92
2018-09-27T18:30:57.646Z,91.54
2018-09-27T18:33:26.991Z,92.81
2018-09-27T18:35:56.278Z,92.09
2018-09-27T18:38:25.506Z,92.51
2018-09-27T18:40:54.749Z,93.29
2018-09-27T18:43:23.971Z,94.21
2018-09-27T18:45:53.202Z,94.15
2018-09-27T18:48:22.442Z,94.38
2018-09-27T18:50:51.676Z,94.76
2018-09-27T18:53:20.902Z,95.32
2018-09-27T18:55:50.138Z,95.47
2018-09-27T18:58:19.365Z,95.60
2018-09-27T19:00:48.570Z,94.85
2018-09-27T19:03:17.867Z,93.46
2018-09-27T19:05:47.106Z,94.95
2018-09-27T19:08:16.371Z,95.23
2018-09-27T19:10:45.631Z,95.94
2018-09-27T19:13:14.930Z,96.61
2018-09-27T19:15:44.166Z,96.17
2018-09-27T19:18:13.396Z,96.14
2018-09-27T19:20:42.691Z,96.34
2018-09-27T19:23:11.914Z,95.81
2018-09-27T19:25:41.124Z,94.64
2018-09-27T19:28:10.352Z,94.32
2018-09-27T19:30:45.819Z,94.26
2018-09-27T19:38:12.270Z,97.70
2018-09-27T19:40:41.495Z,97.82
2018-09-27T19:43:11.885Z,97.52
2018-09-27T19:45:41.127Z,98.12
2018-09-27T19:48:10.372Z,98.47
2018-09-27T19:50:39.611Z,98.54
2018-09-27T19:53:08.834Z,98.36
2018-09-27T19:55:38.160Z,98.41
2018-09-27T19:58:07.803Z,97.95
2018-09-27T20:00:37.158Z,96.93
2018-09-27T20:03:06.358Z,98.29
2018-09-27T20:05:35.607Z,98.61
2018-09-27T20:08:04.810Z,99.43
2018-09-27T20:10:34.125Z,99.62
2018-09-27T20:13:03.271Z,99.45
2018-09-27T20:15:32.778Z,99.33
2018-09-27T20:18:02.490Z,99.55
2018-09-27T20:20:31.834Z,99.61
2018-09-27T20:23:01.098Z,99.63
2018-09-27T20:25:30.262Z,99.04
2018-09-27T20:27:59.540Z,99.58
2018-09-27T20:30:28.707Z,99.04
2018-09-27T20:32:57.920Z,100.00
2018-09-27T20:35:27.176Z,100.00
2018-09-27T20:37:56.404Z,100.00
2018-09-27T20:40:25.646Z,100.00
2018-09-27T20:42:54.902Z,100.00
2018-09-27T20:45:24.162Z,100.00
2018-09-27T20:47:53.500Z,100.00
2018-09-27T20:50:23.053Z,100.00
2018-09-27T20:52:52.262Z,100.00
2018-09-27T20:55:21.486Z,100.00
2018-09-27T20:57:50.722Z,100.00
2018-09-27T21:00:20.015Z,100.00
2018-09-27T21:02:49.302Z,100.00
2018-09-27T21:05:18.544Z,100.00
2018-09-27T21:07:48.426Z,100.00
2018-09-27T21:10:17.742Z,100.00
2018-09-27T21:12:46.947Z,100.00
2018-09-27T21:15:16.187Z,100.00
2018-09-27T21:17:45.427Z,100.00
2018-09-27T21:20:14.683Z,100.00
2018-09-27T21:22:43.956Z,100.00
2018-09-27T21:25:13.174Z,100.00
2018-09-27T21:27:42.405Z,100.00
2018-09-27T21:30:11.622Z,100.00
2018-09-27T21:32:41.447Z,100.00
2018-09-27T21:35:10.667Z,100.00
2018-09-27T21:37:39.878Z,100.00
2018-09-27T21:40:09.099Z,100.00
2018-09-27T21:42:38.327Z,100.00
2018-09-27T21:45:07.583Z,100.00
2018-09-27T21:47:36.806Z,100.00
2018-09-27T21:50:06.105Z,100.00
2018-09-27T21:52:35.517Z,100.00
2018-09-27T21:55:04.730Z,100.00
2018-09-27T21:57:33.939Z,100.00
2018-09-27T22:00:03.274Z,100.00
2018-09-27T22:02:32.487Z,100.00
2018-09-27T22:05:01.697Z,100.00
2018-09-27T22:07:30.959Z,100.00
2018-09-27T22:10:00.199Z,100.00
2018-09-27T22:12:29.415Z,100.00
2018-09-27T22:14:58.638Z,100.00
2018-09-27T22:17:27.866Z,100.00
2018-09-27T22:19:58.338Z,100.00
2018-09-27T22:22:27.552Z,100.00
2018-09-27T22:24:56.842Z,100.00
2018-09-27T22:27:26.115Z,100.00
2018-09-27T22:29:55.311Z,100.00
2018-09-27T22:32:24.794Z,100.00
2018-09-27T22:34:54.010Z,100.00
2018-09-27T22:37:23.205Z,100.00
2018-09-27T22:39:52.420Z,100.00
2018-09-27T22:42:21.798Z,100.00
2018-09-27T22:44:51.031Z,100.00
2018-09-27T22:47:20.238Z,100.00
2018-09-27T22:49:49.475Z,100.00
2018-09-27T22:52:18.682Z,100.00
2018-09-27T22:54:47.917Z,100.00
2018-09-27T22:57:17.134Z,100.00
2018-09-27T22:59:46.351Z,100.00
2018-09-27T23:02:15.579Z,100.00
2018-09-27T23:04:44.807Z,100.00
2018-09-27T23:07:14.095Z,100.00
2018-09-27T23:09:43.326Z,100.00
2018-09-27T23:12:12.557Z,100.00
2018-09-27T23:14:41.769Z,100.00
2018-09-27T23:17:10.996Z,100.00
2018-09-27T23:19:40.224Z,100.00
2018-09-27T23:22:09.422Z,100.00
2018-09-27T23:24:38.646Z,100.00
2018-09-27T23:27:07.878Z,100.00
2018-09-27T23:29:37.092Z,100.00
2018-09-27T23:32:06.314Z,100.00
2018-09-27T23:34:35.550Z,100.00
2018-09-27T23:37:04.759Z,100.00
2018-09-27T23:39:34.235Z,100.00
2018-09-27T23:42:03.455Z,100.00
2018-09-27T23:44:32.668Z,100.00
2018-09-27T23:47:01.908Z,100.00
2018-09-27T23:49:31.135Z,100.00
2018-09-27T23:52:00.339Z,100.00
2018-09-27T23:54:29.583Z,100.00
2018-09-27T23:56:58.793Z,100.00
2018-09-27T23:59:28.014Z,100.00
